OITR

Urmia Airport

Urmia, Iran
TAF OITR 201730Z 2018/2124 19005MPS 7000 SCT040 SCT100 TEMPO 2018/2021 22010MPS 3000 TSRA SCT035CB SCT040 BKN090 TEMPO 2112/2118 04009MPS 3000 TSRA SCT030CB SCT035 OVC090
Issued Valid From Valid To
Apr-20 @ 17:30 UTC
(an hour ago)
Apr-20 @ 18:00 UTC
(33 minutes ago)
Apr-22 @ 00:00 UTC
(-1 days ago)
Apr-20 @ 18:00 to Apr-22 @ 00:00
TAF OITR 201730Z 2018/2124 19005MPS 7000 SCT040 SCT100
Wind Visibility Clouds
190° at 10 knots 7,001 meters
  • Scattered at 4,000' AGL
  • Scattered at 10,000' AGL
Temporary Apr-20 @ 18:00 to Apr-20 @ 21:00
TEMPO 2018/2021 22010MPS 3000 TSRA SCT035CB SCT040 BKN090
Wind Visibility Clouds Conditions
220° at 19 knots 2,993 meters
  • Scattered at 3,500' AGL
  • Scattered at 4,000' AGL
  • Broken at 9,000' AGL
  • Thunderstorm
  • Rain
Temporary Apr-21 @ 12:00 to Apr-21 @ 18:00
TEMPO 2112/2118 04009MPS 3000 TSRA SCT030CB SCT035 OVC090
Wind Visibility Clouds Conditions
40° at 17 knots 2,993 meters
  • Scattered at 3,000' AGL
  • Scattered at 3,500' AGL
  • Overcast at 9,000' AGL
  • Thunderstorm
  • Rain
TAF OITR 201730Z 2018/2124 19005MPS 7000 SCT040 SCT100 TEMPO 2018/2021 22010MPS 3000 TSRA SCT035CB SCT040 BKN090 TEMPO 2112/2118 04009MPS 3000 TSRA SCT030CB SCT035 OVC090
Issued Apr-20 @ 17:30 UTC
(an hour ago)
Valid From Apr-20 @ 18:00 UTC
(33 minutes ago)
Valid To Apr-22 @ 00:00 UTC
(-1 days ago)
Apr-20 @ 18:00 - Apr-22 @ 00:00
Wind Visibility
190° at 10 knots 7,001 meters
Clouds
  • Scattered at 4,000' AGL
  • Scattered at 10,000' AGL
Temporary Apr-20 @ 18:00 - Apr-20 @ 21:00
Wind Visibility
220° at 19 knots 2,993 meters
Clouds
  • Scattered at 3,500' AGL
  • Scattered at 4,000' AGL
  • Broken at 9,000' AGL
Conditions
  • Thunderstorm
  • Rain
Temporary Apr-21 @ 12:00 - Apr-21 @ 18:00
Wind Visibility
40° at 17 knots 2,993 meters
Clouds
  • Scattered at 3,000' AGL
  • Scattered at 3,500' AGL
  • Overcast at 9,000' AGL
Conditions
  • Thunderstorm
  • Rain